Airfield :
LOGIN :

Register | Disclaimer

   EN    FR    IT 

 










Legend :    VFR   Marginal VFR   IFR   Intensive IFR   Very Intensive IFR
Visi :
Ceiling :
>= 8 km
>= 3000ft
5 to 8 km
1000 to 3000 ft
1500m to 5 km
500 to 1000 ft
800 to 1500m
200 to 500 ft
< 800m
< 200 ft
Symbols :   Thunderstorms  Fog  Heavy snow  Heavy precipitations  Wind > 20 kt
SIGMETs :     Misc.  Thunderstorms  Icing  Turbulence  Mountain Waves  Volcanic Ashes






- Airport Elevation : 587 ft
- IATA code : XCR


LFOK - Chalons Vatry

CURRENT METAR :
  • 170400Z AUTO 22012KT 9999 BKN009/// BKN014/// BKN021/// ///CB 10/09 Q1005 TEMPO 3000 SHRA

EXPIRED METARs :
  • 170330Z AUTO 22012KT 9999 BKN011/// OVC018/// ///CB 10/09 Q1005 TEMPO 3000 SHRA BKN008 BKN020CB
  • 170300Z AUTO 23014KT 9999 BKN010/// BKN017/// OVC022/// ///TCU 10/09 Q1005 TEMPO 3000 SHRA BKN008 BKN020CB
  • 170230Z AUTO 22012KT 9999 BKN009/// OVC013/// ///TCU 10/09 Q1005 TEMPO 3000 SHRA BKN008 BKN020CB
  • 170200Z AUTO 23011KT 9999 -DZ BKN010/// BKN016/// OVC032/// ///TCU 09/09 Q1005 TEMPO 3000 SHRA BKN008 BKN020CB
  • 170130Z AUTO 23012KT 9999 FEW021/// BKN030/// BKN040/// ///TCU 09/08 Q1005 TEMPO 3000 SHRA BKN008 BKN020CB

TAF TAF LFOK
Valid from the 17 at 00:00 until the 18 at 00:00 UTC


162300Z 1700/1724 24012KT 9999 BKN040
TEMPO 1700/1709 3000 SHRA BKN008 BKN020CB
TEMPO 1709/1724 24015G25KT 3000 SHRA BKN030CB
PROB30
TEMPO 1700/1724 TSRA



MET'MAP, your aeronautical weather chart ! - Copyright ORBIFLY December 2007 - Disclaimer

ORBIFLY MET'MAP TEAM :

Programming & Development : Alexandra Zaïnal
Concept & original design : Baudouin d'Aumeries
Assistance for programming : Marc-Olivier Méhu
Technical & hardware support : Manuel Goepfert

Contact : metmap@orbifly.com




SOURCES & CREDITS :

   NOAA